Time;durP1;ratioP1;P1;durP2;ratioP2;P2;SDS_P1;SDS_P2;PMS_P1;PMS_P2;Temp;Humidity;BMP_temperature;BMP_pressure;BME280_temperature;BME280_humidity;BME280_pressure;Samples;Min_cycle;Max_cycle;Signal;HPM_P1;HPM_P2
2022/05/24 00:00:58;;;;;;;3.87;2.93;;;;;;;20.93;55.28;99475.78;4920967;28;97264;-54
2022/05/24 00:03:23;;;;;;;2.70;2.50;;;;;;;20.96;55.57;99483.00;4918378;28;96947;-54
2022/05/24 00:05:50;;;;;;;3.00;2.80;;;;;;;20.97;55.51;99497.75;4919643;28;108038;-53
2022/05/24 00:08:15;;;;;;;2.87;2.60;;;;;;;20.99;55.63;99498.59;4916076;28;97383;-52
2022/05/24 00:10:41;;;;;;;2.90;2.70;;;;;;;21.00;55.70;99499.34;4926796;28;96647;-60
2022/05/24 00:13:08;;;;;;;2.87;2.67;;;;;;;21.00;55.83;99497.28;4916596;28;96964;-53
2022/05/24 00:15:33;;;;;;;2.50;2.40;;;;;;;21.06;55.93;99502.56;4921412;28;98760;-54
2022/05/24 00:18:00;;;;;;;3.93;2.63;;;;;;;21.08;56.10;99502.75;4920653;28;97571;-54
2022/05/24 00:20:35;;;;;;;3.00;2.70;;;;;;;21.12;56.79;99500.94;4920697;28;96849;-52
2022/05/24 00:23:01;;;;;;;2.33;2.07;;;;;;;21.15;56.15;99504.63;4920196;28;97200;-53
2022/05/24 00:25:28;;;;;;;2.93;2.73;;;;;;;21.18;56.36;99495.03;4920877;28;97051;-54
2022/05/24 00:27:54;;;;;;;3.10;2.90;;;;;;;21.21;56.47;99496.66;4921185;28;97278;-54
2022/05/24 00:30:20;;;;;;;2.57;2.37;;;;;;;21.21;56.54;99505.75;4924499;28;97001;-53
2022/05/24 00:32:46;;;;;;;2.33;2.03;;;;;;;21.20;56.72;99506.38;4918303;28;97131;-54
2022/05/24 00:35:12;;;;;;;3.90;2.93;;;;;;;21.17;56.99;99525.06;4923752;28;97694;-55
2022/05/24 00:37:39;;;;;;;3.80;2.73;;;;;;;21.15;57.07;99550.09;4920154;28;97161;-55
2022/05/24 00:40:08;;;;;;;3.33;3.07;;;;;;;21.11;57.41;99557.47;4924406;28;97062;-54
2022/05/24 00:42:33;;;;;;;3.80;3.07;;;;;;;21.00;57.28;99558.78;4919436;28;96837;-53
2022/05/24 00:45:11;;;;;;;2.20;2.10;;;;;;;20.82;58.09;99588.97;4922804;28;97531;-53
2022/05/24 00:47:41;;;;;;;2.50;1.53;;;;;;;20.66;57.36;99590.59;4912926;28;100271;-53
2022/05/24 00:50:17;;;;;;;1.80;1.70;;;;;;;20.52;58.13;99602.81;4921776;28;97224;-53
2022/05/24 00:52:58;;;;;;;1.30;1.20;;;;;;;20.36;57.49;99613.50;4926813;28;97128;-53
2022/05/24 00:55:25;;;;;;;1.30;1.20;;;;;;;20.21;57.19;99619.38;4915689;28;102326;-51
2022/05/24 00:58:31;;;;;;;1.47;1.37;;;;;;;20.07;58.48;99623.88;4921899;28;98882;-53
2022/05/24 01:01:01;;;;;;;1.37;1.27;;;;;;;19.94;57.75;99636.16;4917723;28;96787;-53
2022/05/24 01:03:26;;;;;;;1.20;1.20;;;;;;;19.87;57.44;99636.28;4926704;28;96785;-53
2022/05/24 01:05:52;;;;;;;1.27;1.17;;;;;;;19.84;57.33;99640.97;4922751;28;97121;-51
2022/05/24 01:08:18;;;;;;;1.73;1.53;;;;;;;19.81;57.60;99653.28;4921297;28;126438;-53
2022/05/24 01:10:50;;;;;;;1.77;1.17;;;;;;;19.83;57.97;99653.44;4924398;28;97073;-53
2022/05/24 01:13:20;;;;;;;2.10;1.90;;;;;;;19.78;57.78;99659.31;4919010;28;97075;-53
2022/05/24 01:15:46;;;;;;;2.03;1.93;;;;;;;19.71;57.37;99668.50;4921023;28;98734;-53
2022/05/24 01:18:14;;;;;;;2.07;1.97;;;;;;;19.67;57.45;99668.19;4920741;28;96766;-51
2022/05/24 01:20:43;;;;;;;2.00;1.90;;;;;;;19.62;57.44;99683.16;4906313;28;97081;-52
2022/05/24 01:23:15;;;;;;;4.73;2.47;;;;;;;19.60;58.16;99696.94;4922904;28;96982;-53
2022/05/24 01:25:55;;;;;;;2.27;2.13;;;;;;;19.53;57.28;99692.22;4923740;28;118815;-53
2022/05/24 01:28:45;;;;;;;2.50;2.30;;;;;;;19.42;58.40;99694.19;4925007;28;101531;-53
2022/05/24 01:31:11;;;;;;;2.00;1.90;;;;;;;19.37;57.21;99695.16;4916011;28;96957;-51
2022/05/24 01:36:25;;;;;;;2.13;2.03;;;;;;;19.27;57.48;99707.53;4902161;28;97205;-52
2022/05/24 01:38:53;;;;;;;4.03;2.57;;;;;;;19.21;57.53;99699.44;4903624;28;98279;-52
2022/05/24 01:41:22;;;;;;;2.17;2.07;;;;;;;19.20;57.51;99700.75;4902166;28;96933;-53
2022/05/24 01:43:51;;;;;;;4.37;2.53;;;;;;;19.14;57.56;99697.47;4904087;28;97089;-52
2022/05/24 01:46:21;;;;;;;3.93;3.17;;;;;;;19.13;57.47;99704.34;4899883;28;97393;-52
2022/05/24 01:48:57;;;;;;;2.80;2.60;;;;;;;19.15;57.92;99715.69;4892377;28;97249;-52
2022/05/24 01:51:29;;;;;;;2.57;2.47;;;;;;;19.13;57.61;99721.09;4898039;28;97228;-51
2022/05/24 01:53:59;;;;;;;2.87;2.67;;;;;;;19.13;57.29;99723.16;4897763;28;96932;-53
2022/05/24 01:56:33;;;;;;;3.10;2.90;;;;;;;19.11;57.89;99726.50;4898209;28;98237;-52
2022/05/24 01:59:01;;;;;;;3.10;2.90;;;;;;;19.11;57.39;99734.84;4906490;28;97197;-53
2022/05/24 02:01:43;;;;;;;2.93;2.73;;;;;;;19.09;58.40;99745.13;4924847;28;96653;-53
2022/05/24 02:04:08;;;;;;;3.13;2.87;;;;;;;19.04;57.27;99743.31;4920565;28;96814;-53
2022/05/24 02:06:34;;;;;;;3.60;3.30;;;;;;;18.97;57.42;99746.91;4907269;28;111887;-53
2022/05/24 02:08:59;;;;;;;4.10;3.80;;;;;;;19.00;57.25;99754.84;4902611;28;97073;-52
2022/05/24 02:11:28;;;;;;;3.97;3.60;;;;;;;18.95;57.35;99757.91;4901283;28;96924;-52
2022/05/24 02:14:03;;;;;;;3.77;3.30;;;;;;;18.92;58.15;99773.72;4903841;28;97231;-54
2022/05/24 02:16:33;;;;;;;4.50;3.87;;;;;;;18.88;57.37;99761.50;4902547;28;125037;-52
2022/05/24 02:18:59;;;;;;;4.00;3.70;;;;;;;18.83;57.35;99763.19;4903699;28;97291;-50
2022/05/24 02:21:24;;;;;;;3.50;3.20;;;;;;;18.82;57.36;99761.00;4902868;28;96609;-52
2022/05/24 02:23:50;;;;;;;3.73;3.40;;;;;;;18.80;57.33;99769.94;4906345;28;110620;-52
2022/05/24 02:26:19;;;;;;;3.13;2.80;;;;;;;18.79;57.35;99765.66;4902599;28;97434;-51
2022/05/24 02:28:44;;;;;;;5.10;3.70;;;;;;;18.77;57.29;99771.06;4908378;28;96960;-51
2022/05/24 02:31:14;;;;;;;3.03;2.30;;;;;;;18.76;57.31;99772.38;4922471;28;97084;-52
2022/05/24 02:33:39;;;;;;;2.60;2.40;;;;;;;18.76;57.13;99766.81;4922043;28;97077;-53
2022/05/24 02:36:06;;;;;;;2.30;2.20;;;;;;;18.80;57.33;99769.94;4917659;28;97305;-53
2022/05/24 02:38:32;;;;;;;2.70;2.60;;;;;;;18.81;57.14;99773.44;4923363;28;98419;-52
2022/05/24 02:43:42;;;;;;;3.20;2.27;;;;;;;18.76;57.01;99771.66;4904654;28;96748;-52
2022/05/24 02:46:08;;;;;;;2.23;2.10;;;;;;;18.74;57.21;99772.19;4900868;28;96937;-53
2022/05/24 02:48:35;;;;;;;1.90;1.80;;;;;;;18.77;57.02;99767.53;4936926;28;97820;-53
2022/05/24 02:51:00;;;;;;;2.80;2.40;;;;;;;18.76;57.29;99772.38;4906509;28;96814;-53
2022/05/24 02:53:25;;;;;;;2.43;2.23;;;;;;;18.77;57.01;99779.44;4905801;28;112728;-54
2022/05/24 02:55:51;;;;;;;2.50;2.40;;;;;;;18.76;57.08;99777.97;4902343;28;97401;-54
2022/05/24 02:58:16;;;;;;;2.63;2.43;;;;;;;18.76;56.92;99786.31;4903612;28;96919;-53
2022/05/24 03:00:42;;;;;;;2.30;1.90;;;;;;;18.76;56.98;99788.38;4908174;28;98433;-53
2022/05/24 03:03:08;;;;;;;2.50;2.30;;;;;;;18.73;57.17;99798.59;4918225;28;97375;-53
2022/05/24 03:05:34;;;;;;;2.73;2.50;;;;;;;18.72;57.11;99805.47;4918723;28;99178;-52
2022/05/24 03:10:44;;;;;;;1.90;1.80;;;;;;;18.68;57.03;99816.28;4923061;28;97037;-54
2022/05/24 03:15:53;;;;;;;2.90;2.33;;;;;;;18.65;56.92;99807.00;4917544;28;102141;-53
2022/05/24 03:18:21;;;;;;;2.50;2.30;;;;;;;18.67;57.06;99812.75;4926720;28;98481;-53
2022/05/24 03:20:46;;;;;;;2.47;2.00;;;;;;;18.67;57.04;99837.09;4913001;28;97165;-53
2022/05/24 03:23:13;;;;;;;2.30;2.07;;;;;;;18.65;57.01;99826.50;4922150;28;97167;-54
2022/05/24 03:25:38;;;;;;;3.80;2.47;;;;;;;18.66;57.09;99830.03;4924453;28;97609;-53
2022/05/24 03:28:05;;;;;;;1.90;1.50;;;;;;;18.66;56.91;99819.63;4927978;28;125524;-53
2022/05/24 03:30:32;;;;;;;1.90;1.80;;;;;;;18.67;57.10;99832.25;4926263;28;96811;-53
2022/05/24 03:32:58;;;;;;;1.80;1.70;;;;;;;18.67;57.29;99828.75;4930368;28;97354;-52
2022/05/24 03:35:24;;;;;;;1.80;1.70;;;;;;;18.67;57.10;99831.53;4923758;28;97878;-50
2022/05/24 03:37:49;;;;;;;2.53;1.80;;;;;;;18.66;56.99;99838.41;4929021;28;97015;-52
2022/05/24 03:40:15;;;;;;;1.57;1.27;;;;;;;18.63;57.11;99839.56;4922314;28;97150;-52
2022/05/24 03:42:40;;;;;;;1.90;1.73;;;;;;;18.63;57.08;99839.56;4920748;28;97370;-52
2022/05/24 03:45:08;;;;;;;2.10;1.90;;;;;;;18.64;56.97;99847.34;4922413;28;108121;-51
2022/05/24 03:47:34;;;;;;;2.03;1.93;;;;;;;18.64;57.25;99852.16;4917901;28;97098;-52
2022/05/24 03:49:59;;;;;;;3.03;2.30;;;;;;;18.64;56.93;99838.22;4925981;28;97133;-52
2022/05/24 03:52:25;;;;;;;2.20;2.00;;;;;;;18.63;56.93;99839.56;4925788;28;97078;-51
2022/05/24 03:54:50;;;;;;;3.67;1.80;;;;;;;18.63;56.99;99829.13;4920918;28;105753;-52
2022/05/24 04:00:00;;;;;;;1.40;1.40;;;;;;;18.62;56.85;99829.69;4922063;28;96755;-52
2022/05/24 04:02:25;;;;;;;1.37;1.37;;;;;;;18.62;56.95;99829.69;4922497;28;97105;-51
2022/05/24 04:04:50;;;;;;;2.43;1.50;;;;;;;18.61;56.78;99842.13;4918527;28;127150;-52
2022/05/24 04:07:15;;;;;;;1.93;1.50;;;;;;;18.59;56.75;99847.53;4921166;28;97211;-52
2022/05/24 04:09:41;;;;;;;1.60;1.43;;;;;;;18.57;56.47;99858.50;4922613;28;97188;-53
2022/05/24 04:12:07;;;;;;;1.50;1.43;;;;;;;18.57;56.96;99858.50;4922909;28;110635;-52
2022/05/24 04:14:33;;;;;;;2.70;2.00;;;;;;;18.57;56.79;99859.25;4924171;28;96903;-52
2022/05/24 04:16:59;;;;;;;1.80;1.70;;;;;;;18.58;56.73;99848.88;4918151;28;97163;-52
2022/05/24 04:19:24;;;;;;;2.03;1.80;;;;;;;18.54;56.79;99863.16;4922409;28;97814;-53
2022/05/24 04:21:50;;;;;;;1.50;1.40;;;;;;;18.53;56.87;99872.09;4922791;28;97329;-52
2022/05/24 04:24:15;;;;;;;1.93;1.73;;;;;;;18.48;56.83;99871.00;4924459;28;97339;-50
2022/05/24 04:26:41;;;;;;;1.53;1.43;;;;;;;18.47;56.92;99880.69;4923194;28;96768;-52
2022/05/24 04:29:06;;;;;;;4.47;2.47;;;;;;;18.45;56.78;99879.78;4924451;28;97169;-54
2022/05/24 04:31:32;;;;;;;1.50;1.40;;;;;;;18.45;56.92;99879.78;4922662;28;96822;-52
2022/05/24 04:33:57;;;;;;;1.70;1.40;;;;;;;18.45;56.93;99874.19;4919389;28;97320;-52
2022/05/24 04:36:22;;;;;;;1.70;1.60;;;;;;;18.47;56.75;99882.72;4918281;28;97417;-52
2022/05/24 04:38:48;;;;;;;1.70;1.57;;;;;;;18.46;56.54;99887.56;4922547;28;101280;-52
2022/05/24 04:43:57;;;;;;;1.57;1.47;;;;;;;18.45;56.72;99877.72;4928943;28;97107;-53
2022/05/24 04:46:22;;;;;;;2.90;1.50;;;;;;;18.48;56.63;99881.41;4922727;28;126420;-49
2022/05/24 04:48:47;;;;;;;1.50;1.40;;;;;;;18.50;56.68;99887.19;4923772;28;106670;-51
2022/05/24 04:51:13;;;;;;;1.80;1.70;;;;;;;18.53;56.79;99880.47;4923656;28;113139;-52
2022/05/24 04:53:38;;;;;;;4.10;2.00;;;;;;;18.53;56.56;99878.41;4920635;28;97432;-52
2022/05/24 04:56:04;;;;;;;2.27;1.50;;;;;;;18.54;56.59;99881.94;4922835;28;97277;-51
2022/05/24 04:58:29;;;;;;;1.60;1.50;;;;;;;18.52;56.42;99879.72;4923262;28;96727;-53
2022/05/24 05:00:55;;;;;;;1.77;1.67;;;;;;;18.56;56.69;99868.19;4923405;28;96723;-52
2022/05/24 05:03:22;;;;;;;2.10;1.97;;;;;;;18.61;56.79;99870.00;4925669;28;128171;-52
2022/05/24 05:05:49;;;;;;;3.03;2.10;;;;;;;18.69;56.59;99879.06;4915660;28;97117;-52
2022/05/24 05:08:16;;;;;;;2.97;2.50;;;;;;;18.70;56.30;99877.75;4919961;28;97137;-51
2022/05/24 05:10:41;;;;;;;2.17;2.07;;;;;;;18.70;56.46;99880.53;4919530;28;96875;-49
2022/05/24 05:13:07;;;;;;;2.50;2.20;;;;;;;18.73;56.34;99875.88;4921387;28;96895;-52
2022/05/24 05:15:35;;;;;;;2.20;2.10;;;;;;;18.76;56.16;99869.91;4921409;28;96928;-52
2022/05/24 05:18:04;;;;;;;3.13;1.97;;;;;;;18.78;56.15;99872.88;4921513;28;96661;-52
2022/05/24 05:20:31;;;;;;;2.50;2.40;;;;;;;18.79;56.17;99863.19;4922616;28;97227;-52
2022/05/24 05:22:57;;;;;;;4.10;2.40;;;;;;;18.77;56.29;99881.78;4916730;28;97523;-52
2022/05/24 05:25:22;;;;;;;2.10;2.00;;;;;;;18.76;56.40;99864.34;4922213;28;97276;-49
2022/05/24 05:27:47;;;;;;;2.20;2.10;;;;;;;18.78;56.20;99867.31;4913129;28;96971;-52
2022/05/24 05:32:57;;;;;;;2.20;2.10;;;;;;;18.79;56.31;99874.34;4913570;28;101330;-55
2022/05/24 05:35:22;;;;;;;1.83;1.73;;;;;;;18.81;56.20;99870.97;4918161;28;97011;-52
2022/05/24 05:37:47;;;;;;;1.80;1.70;;;;;;;18.81;56.26;99884.91;4919965;28;111932;-52
2022/05/24 05:40:14;;;;;;;2.20;2.10;;;;;;;18.81;56.32;99888.44;4906702;28;97285;-51
2022/05/24 05:42:39;;;;;;;2.50;2.30;;;;;;;18.83;56.35;99887.91;4921872;28;97325;-52
2022/05/24 05:45:10;;;;;;;1.97;1.87;;;;;;;18.84;56.51;99892.91;4922788;28;96769;-51
2022/05/24 05:47:36;;;;;;;2.40;2.17;;;;;;;18.85;56.31;99899.94;4922680;28;97153;-52
2022/05/24 05:50:02;;;;;;;3.30;3.10;;;;;;;18.83;56.23;99907.41;4917690;28;97478;-51
2022/05/24 05:52:27;;;;;;;3.10;2.47;;;;;;;18.85;56.50;99915.94;4912503;28;97005;-52
2022/05/24 05:54:52;;;;;;;3.50;3.20;;;;;;;18.85;56.10;99916.66;4915413;28;125442;-52
2022/05/24 05:57:18;;;;;;;3.50;3.20;;;;;;;18.84;56.29;99922.81;4915019;28;112265;-49
2022/05/24 05:59:43;;;;;;;4.97;3.60;;;;;;;18.88;56.48;99932.25;4918691;28;96996;-52
2022/05/24 06:02:09;;;;;;;6.40;3.17;;;;;;;18.92;56.42;99932.59;4918535;28;128195;-52
2022/05/24 06:04:35;;;;;;;4.53;3.73;;;;;;;18.94;56.33;99937.59;4906337;28;97502;-52
2022/05/24 06:07:00;;;;;;;4.50;4.10;;;;;;;18.97;56.19;99936.47;4919281;28;97176;-51
2022/05/24 06:09:26;;;;;;;5.27;4.30;;;;;;;19.00;56.43;99940.91;4921508;28;112681;-52
2022/05/24 06:11:51;;;;;;;5.03;4.63;;;;;;;19.07;56.30;99934.53;4917225;28;98533;-51
2022/05/24 06:14:16;;;;;;;3.97;3.67;;;;;;;19.18;56.40;99943.19;4916358;28;97112;-52
2022/05/24 06:16:42;;;;;;;4.30;3.90;;;;;;;19.29;56.23;99947.56;4912571;28;113168;-52
2022/05/24 06:19:07;;;;;;;5.23;4.27;;;;;;;19.36;55.99;99950.34;4923096;28;96827;-52
2022/05/24 06:21:33;;;;;;;5.53;4.40;;;;;;;19.47;56.14;99953.97;4916642;28;126854;-52
2022/05/24 06:24:06;;;;;;;3.97;3.67;;;;;;;19.60;56.45;99953.66;4920155;28;97186;-52
2022/05/24 06:26:33;;;;;;;4.43;4.10;;;;;;;19.62;55.97;99951.03;4918827;28;97875;-51
2022/05/24 06:29:01;;;;;;;5.13;4.70;;;;;;;19.59;55.99;99952.19;4922688;28;97420;-52
2022/05/24 06:31:27;;;;;;;5.73;4.40;;;;;;;19.59;56.03;99952.19;4918454;28;97553;-48
2022/05/24 06:33:52;;;;;;;5.10;4.70;;;;;;;19.63;56.11;99958.84;4916363;28;96915;-52
2022/05/24 06:36:18;;;;;;;4.50;4.20;;;;;;;19.67;56.05;99964.00;4916374;28;97272;-52
2022/05/24 06:38:43;;;;;;;6.23;4.67;;;;;;;19.71;55.76;99962.31;4915951;28;98300;-52
2022/05/24 06:41:08;;;;;;;6.07;5.47;;;;;;;19.77;55.97;99962.06;4913893;28;98224;-50
2022/05/24 06:43:34;;;;;;;8.93;5.10;;;;;;;19.83;55.73;99960.50;4917853;28;119734;-50
2022/05/24 06:46:00;;;;;;;6.03;5.43;;;;;;;19.88;55.90;99967.16;4917518;28;96953;-51
2022/05/24 06:48:26;;;;;;;6.47;5.30;;;;;;;19.93;56.02;99972.50;4926022;28;96907;-50
2022/05/24 06:50:51;;;;;;;6.93;6.30;;;;;;;19.97;55.66;99972.09;4921625;28;97853;-50
2022/05/24 06:53:17;;;;;;;6.27;5.67;;;;;;;19.97;55.98;99970.03;4928098;28;97215;-51
2022/05/24 06:55:43;;;;;;;6.63;6.00;;;;;;;20.00;55.69;99970.94;4927585;28;97388;-51
2022/05/24 06:58:08;;;;;;;7.70;7.00;;;;;;;19.99;55.52;99984.16;4922174;28;97085;-52
2022/05/24 07:03:17;;;;;;;9.83;8.33;;;;;;;20.01;55.45;99986.38;4923762;28;101341;-49
2022/05/24 07:05:44;;;;;;;8.10;7.03;;;;;;;20.02;55.33;99982.28;4926254;28;96842;-49
2022/05/24 07:08:10;;;;;;;8.73;7.87;;;;;;;20.03;55.53;99986.53;4918613;28;96957;-51
2022/05/24 07:10:37;;;;;;;8.87;8.00;;;;;;;20.08;55.27;99993.94;4921401;28;98554;-51
2022/05/24 07:13:08;;;;;;;8.83;8.00;;;;;;;20.07;55.34;99996.00;4922973;28;96785;-52
2022/05/24 07:15:34;;;;;;;7.50;6.90;;;;;;;20.03;55.55;99997.72;4923718;28;97086;-52
2022/05/24 07:18:00;;;;;;;9.43;8.43;;;;;;;20.02;55.36;100004.63;4927121;28;97028;-51
2022/05/24 07:20:26;;;;;;;8.07;7.07;;;;;;;20.07;55.53;100006.44;4924496;28;97296;-51
2022/05/24 07:22:52;;;;;;;8.23;7.10;;;;;;;20.06;55.36;100013.31;4921270;28;97186;-52
2022/05/24 07:25:18;;;;;;;7.90;7.20;;;;;;;20.02;55.28;100015.78;4923759;28;97228;-52
2022/05/24 07:27:44;;;;;;;9.10;8.20;;;;;;;20.00;55.33;100018.41;4919034;28;96900;-51
2022/05/24 07:30:10;;;;;;;7.77;7.00;;;;;;;19.99;55.42;100017.69;4927626;28;96810;-51
2022/05/24 07:32:35;;;;;;;8.07;7.23;;;;;;;20.02;55.14;100013.00;4925843;28;99014;-50
2022/05/24 07:35:01;;;;;;;8.67;7.87;;;;;;;20.04;55.42;100018.75;4922898;28;114063;-52
2022/05/24 07:37:26;;;;;;;7.23;6.73;;;;;;;20.06;55.14;100021.72;4926256;28;97003;-52
2022/05/24 07:45:48;;;;;;;8.00;7.30;;;;;;;20.11;55.32;100026.31;4921846;28;124901;-50
2022/05/24 07:48:06;;;;;;;9.10;6.57;;;;;;;20.28;55.20;100045.91;4923299;28;96982;-49
2022/05/24 07:50:31;;;;;;;8.87;8.03;;;;;;;20.32;54.97;100046.22;4926333;28;97163;-54
2022/05/24 07:52:57;;;;;;;8.30;7.50;;;;;;;20.36;54.91;100045.81;4917436;28;98886;-51
2022/05/24 07:55:22;;;;;;;8.20;7.40;;;;;;;20.41;55.10;100037.19;4925155;28;97035;-49
2022/05/24 07:57:48;;;;;;;7.17;6.53;;;;;;;20.53;54.99;100048.63;4925487;28;96858;-52
2022/05/24 08:00:13;;;;;;;8.83;6.90;;;;;;;20.58;54.86;100051.16;4929279;28;98685;-52
2022/05/24 08:02:39;;;;;;;9.37;7.40;;;;;;;20.65;54.76;100041.94;4925235;28;97299;-52
2022/05/24 08:05:05;;;;;;;7.03;6.33;;;;;;;20.72;54.63;100045.97;4926785;28;96924;-52
2022/05/24 08:07:31;;;;;;;8.10;7.20;;;;;;;20.72;54.50;100054.34;4923569;28;96887;-52
2022/05/24 08:09:56;;;;;;;9.83;7.37;;;;;;;20.72;54.15;100054.34;4923308;28;97045;-52
2022/05/24 08:12:22;;;;;;;7.37;6.77;;;;;;;20.74;54.29;100060.09;4924825;28;97158;-49
2022/05/24 08:14:47;;;;;;;7.23;6.63;;;;;;;20.76;54.33;100058.22;4923579;28;97208;-52
2022/05/24 08:17:12;;;;;;;8.70;7.83;;;;;;;20.74;54.37;100058.06;4922844;28;98132;-52
2022/05/24 08:19:38;;;;;;;8.10;7.37;;;;;;;20.71;54.41;100062.00;4922677;28;127001;-51
2022/05/24 08:22:03;;;;;;;8.13;7.43;;;;;;;20.74;54.56;100069.25;4920188;28;116315;-50
2022/05/24 08:24:29;;;;;;;7.87;7.17;;;;;;;20.79;54.34;100070.31;4917643;28;96985;-51
2022/05/24 08:26:54;;;;;;;9.13;6.90;;;;;;;20.83;54.17;100074.16;4918472;28;111641;-50
2022/05/24 08:29:19;;;;;;;10.07;7.27;;;;;;;20.78;54.17;100080.00;4921113;28;99516;-51
2022/05/24 08:31:44;;;;;;;6.83;6.23;;;;;;;20.69;54.00;100087.00;4919131;28;127238;-50
2022/05/24 08:34:10;;;;;;;7.23;6.63;;;;;;;20.62;54.35;100082.22;4921770;28;111946;-51
2022/05/24 08:36:37;;;;;;;7.23;6.40;;;;;;;20.57;54.07;100083.22;4923901;28;96893;-51
2022/05/24 08:39:03;;;;;;;6.73;6.13;;;;;;;20.56;54.25;100078.94;4923684;28;103074;-50
2022/05/24 08:41:38;;;;;;;6.40;5.90;;;;;;;20.55;54.03;100083.03;4924418;28;98019;-51
2022/05/24 08:50:00;;;;;;;5.00;4.57;;;;;;;20.37;53.92;100092.00;4916817;28;102298;-50
2022/05/24 08:52:35;;;;;;;5.73;5.23;;;;;;;20.18;53.34;100128.84;4922150;28;97247;-51
2022/05/24 08:55:00;;;;;;;3.60;3.30;;;;;;;19.96;53.53;100136.09;4918706;28;97068;-50
2022/05/24 08:57:39;;;;;;;6.80;2.73;;;;;;;19.75;54.32;100146.09;4920925;28;97556;-51
2022/05/24 09:00:10;;;;;;;2.83;2.73;;;;;;;19.61;54.56;100156.06;4923582;28;98844;-50
2022/05/24 09:02:38;;;;;;;2.63;2.50;;;;;;;19.49;54.69;100155.00;4920449;28;97378;-50
2022/05/24 09:05:03;;;;;;;3.10;2.90;;;;;;;19.42;54.75;100157.28;4920082;28;97236;-51
2022/05/24 09:07:39;;;;;;;3.03;2.80;;;;;;;19.34;55.28;100156.59;4916961;28;97087;-51
2022/05/24 09:10:11;;;;;;;3.80;3.50;;;;;;;19.31;55.22;100163.25;4918583;28;104787;-51
2022/05/24 09:12:49;;;;;;;5.40;2.83;;;;;;;19.25;55.26;100161.97;4916322;28;101712;-51
2022/05/24 09:15:30;;;;;;;4.10;2.90;;;;;;;19.16;55.55;100177.28;4918991;28;96941;-51
2022/05/24 09:18:11;;;;;;;3.47;2.97;;;;;;;19.05;55.54;100191.63;4917014;28;97095;-51
2022/05/24 09:20:42;;;;;;;2.80;2.70;;;;;;;18.94;55.67;100182.91;4921684;28;97732;-52
2022/05/24 09:23:41;;;;;;;5.13;2.80;;;;;;;18.82;56.08;100185.38;4921917;28;97339;-51
2022/05/24 09:26:13;;;;;;;2.43;2.33;;;;;;;18.73;55.73;100183.16;4898503;28;97414;-51
2022/05/24 09:28:52;;;;;;;2.60;2.40;;;;;;;18.63;55.91;100188.56;4918335;28;96833;-49
2022/05/24 09:31:39;;;;;;;2.40;2.20;;;;;;;18.53;56.00;100209.19;4914668;28;103174;-51
2022/05/24 09:34:18;;;;;;;2.77;2.57;;;;;;;18.43;55.63;100217.34;4920133;28;100220;-48
2022/05/24 09:36:52;;;;;;;2.13;2.03;;;;;;;18.36;56.12;100192.28;4919458;28;96709;-53
2022/05/24 09:39:35;;;;;;;3.00;2.60;;;;;;;18.30;56.59;100186.91;4921175;28;96929;-50
2022/05/24 09:42:11;;;;;;;2.80;2.60;;;;;;;18.31;56.32;100179.25;4917390;28;103102;-51
2022/05/24 09:44:46;;;;;;;2.50;2.30;;;;;;;18.31;57.11;100184.84;4920898;28;101697;-52
2022/05/24 09:47:25;;;;;;;2.70;2.40;;;;;;;18.37;57.30;100202.84;4918799;28;96809;-51
2022/05/24 09:49:51;;;;;;;2.50;2.40;;;;;;;18.42;56.74;100201.19;4917038;28;96936;-51
2022/05/24 09:52:17;;;;;;;3.37;2.57;;;;;;;18.44;56.57;100196.56;4921463;28;97455;-51
2022/05/24 09:54:53;;;;;;;2.80;2.63;;;;;;;18.50;57.36;100197.09;4916722;28;97131;-51
2022/05/24 09:57:27;;;;;;;2.33;2.23;;;;;;;18.56;56.79;100210.88;4913922;28;97156;-49
2022/05/24 10:00:09;;;;;;;2.90;2.60;;;;;;;18.58;57.01;100208.25;4914796;28;97258;-50
2022/05/24 10:02:39;;;;;;;2.50;2.37;;;;;;;18.54;56.46;100210.69;4918895;28;96802;-50
2022/05/24 10:05:27;;;;;;;2.60;2.50;;;;;;;18.59;57.23;100201.38;4919318;28;97221;-51
2022/05/24 10:08:11;;;;;;;2.43;2.30;;;;;;;18.70;57.03;100212.13;4921251;28;97197;-50
2022/05/24 10:10:40;;;;;;;3.33;2.77;;;;;;;18.83;56.76;100214.72;4919933;28;97152;-51
2022/05/24 10:13:33;;;;;;;2.87;2.57;;;;;;;18.93;57.70;100207.28;4917477;28;97026;-50
2022/05/24 10:16:07;;;;;;;3.87;2.13;;;;;;;19.01;56.85;100208.00;4917631;28;101865;-51
2022/05/24 10:18:51;;;;;;;3.03;2.20;;;;;;;19.07;57.12;100207.78;4904154;28;97056;-52
2022/05/24 10:21:25;;;;;;;2.73;2.53;;;;;;;19.06;56.83;100206.31;4912311;28;97050;-50
2022/05/24 10:23:57;;;;;;;2.60;2.40;;;;;;;18.98;56.34;100203.53;4921845;28;97430;-50
2022/05/24 10:26:33;;;;;;;3.90;2.53;;;;;;;18.91;56.41;100204.31;4919842;28;97523;-49
2022/05/24 10:29:10;;;;;;;3.83;2.60;;;;;;;18.88;56.67;100213.78;4925807;28;96911;-54
2022/05/24 10:31:56;;;;;;;3.00;2.43;;;;;;;18.84;57.00;100221.78;4927823;28;97001;-51
2022/05/24 10:40:41;;;;;;;2.53;2.33;;;;;;;19.21;56.73;100215.38;4922307;28;96911;-50
2022/05/24 10:43:06;;;;;;;2.50;2.40;;;;;;;19.32;56.45;100231.69;4921179;28;97445;-50
2022/05/24 10:45:49;;;;;;;3.23;3.03;;;;;;;19.39;56.37;100227.44;4923282;28;98160;-49
2022/05/24 10:48:24;;;;;;;3.33;3.13;;;;;;;19.39;56.34;100219.81;4921934;28;97494;-49
2022/05/24 10:50:55;;;;;;;3.57;3.37;;;;;;;19.44;56.46;100227.22;4927615;28;97535;-50
2022/05/24 10:53:47;;;;;;;4.23;3.90;;;;;;;19.50;56.90;100243.00;4925025;28;97171;-49
2022/05/24 10:56:23;;;;;;;3.43;3.20;;;;;;;19.57;56.62;100247.81;4921837;28;101868;-51
2022/05/24 10:58:51;;;;;;;4.20;3.90;;;;;;;19.62;55.89;100252.44;4923571;28;97280;-51
2022/05/24 11:01:27;;;;;;;3.83;3.63;;;;;;;19.65;56.77;100260.44;4921795;28;97222;-48
2022/05/24 11:03:58;;;;;;;4.37;4.03;;;;;;;19.71;56.10;100272.13;4929595;28;96729;-52
2022/05/24 11:06:32;;;;;;;4.27;3.97;;;;;;;19.79;56.10;100280.47;4921151;28;96910;-51
2022/05/24 11:09:04;;;;;;;3.53;3.30;;;;;;;19.84;55.83;100280.25;4924202;28;98314;-51
2022/05/24 11:11:43;;;;;;;4.03;3.80;;;;;;;19.92;56.02;100280.22;4924392;28;96804;-50
2022/05/24 11:14:28;;;;;;;3.70;3.50;;;;;;;20.10;56.51;100285.31;4922208;28;97292;-50
2022/05/24 11:16:55;;;;;;;3.57;3.33;;;;;;;20.19;55.56;100281.16;4923923;28;102196;-52
2022/05/24 11:19:31;;;;;;;3.90;3.60;;;;;;;20.30;55.58;100277.22;4922849;28;97528;-52
2022/05/24 11:22:28;;;;;;;3.57;3.27;;;;;;;20.34;54.99;100283.88;4924281;28;97052;-53
2022/05/24 11:25:05;;;;;;;3.47;3.23;;;;;;;20.26;54.64;100285.25;4921204;28;97117;-49
2022/05/24 11:27:34;;;;;;;2.83;2.63;;;;;;;20.33;55.03;100285.22;4921833;28;102222;-51
2022/05/24 11:30:40;;;;;;;4.27;2.80;;;;;;;20.41;54.64;100280.31;4921474;28;102172;-52
2022/05/24 11:33:09;;;;;;;5.43;2.60;;;;;;;20.42;54.43;100275.47;4919975;28;96989;-52
2022/05/24 11:35:44;;;;;;;2.70;2.60;;;;;;;20.36;54.40;100275.66;4920336;28;97015;-51
2022/05/24 11:38:22;;;;;;;2.87;2.67;;;;;;;20.24;54.18;100282.28;4926684;28;104780;-51
2022/05/24 11:41:09;;;;;;;3.33;3.13;;;;;;;20.15;54.33;100292.75;4926888;28;102915;-52
2022/05/24 11:43:43;;;;;;;3.17;2.97;;;;;;;20.18;54.61;100296.47;4924751;28;97592;-50
2022/05/24 11:46:32;;;;;;;6.23;3.50;;;;;;;20.40;54.21;100298.38;4921442;28;97156;-50
2022/05/24 11:48:59;;;;;;;3.20;3.00;;;;;;;20.55;54.06;100291.94;4915301;28;100614;-51
2022/05/24 11:51:39;;;;;;;3.50;3.20;;;;;;;20.51;53.38;100283.94;4924372;28;97149;-51
2022/05/24 11:54:13;;;;;;;2.70;2.57;;;;;;;20.44;53.74;100293.16;4909771;28;97496;-50
2022/05/24 11:56:38;;;;;;;2.53;2.37;;;;;;;20.38;53.65;100295.41;4924367;28;96881;-51
2022/05/24 11:59:06;;;;;;;2.80;2.60;;;;;;;20.35;53.68;100316.13;4926204;28;98128;-51
2022/05/24 12:01:35;;;;;;;2.60;2.40;;;;;;;20.30;53.52;100319.13;4922762;28;97296;-51
2022/05/24 12:09:59;;;;;;;2.50;2.40;;;;;;;20.18;52.66;100321.59;4919910;28;100479;-50
2022/05/24 12:12:35;;;;;;;1.90;1.80;;;;;;;20.12;53.06;100326.63;4922089;28;114344;-52
2022/05/24 12:15:28;;;;;;;3.20;2.37;;;;;;;20.10;52.98;100330.00;4927103;28;96856;-51
2022/05/24 12:17:59;;;;;;;2.90;2.70;;;;;;;20.05;52.94;100322.56;4908435;28;97158;-52
2022/05/24 12:20:47;;;;;;;2.63;2.23;;;;;;;20.16;52.92;100326.97;4920634;28;102714;-49
2022/05/24 12:23:17;;;;;;;2.70;2.50;;;;;;;20.45;52.85;100319.03;4909582;28;106592;-50
2022/05/24 12:26:06;;;;;;;2.87;2.67;;;;;;;20.48;51.67;100341.00;4901669;28;97023;-50